Terminal Aerodrome Forecast
Issued by NWS Boise, ID

Home | Current Version | Previous Version | Text Only | Print | Product List | Glossary On
Versions: 1 2 3 4 5 6 7 8 9 10 11 12 13 14 15 16 17 18 19 20 21 22 23 24 25 26 27 28 29 30 31 32
000
FTUS45 KBOI 230117 AAA
TAFBNO
TAF AMD
KBNO 230117Z 2301/2324 29010KT P6SM VCSH SCT035 BKN080
      TEMPO 2301/2304 6SM -SHSN OVC035
     FM231800 27012G23KT P6SM SCT035 BKN100=

USA.gov is the U.S. government's official web portal to all federal, state and local government web resources and services.